sensor_id;sensor_type;location;lat;lon;timestamp;P1;durP1;ratioP1;P2;durP2;ratioP2
21148;SDS011;10732;51.472;6.466;2024-02-28T00:00:45;276.77;;;59.37;;
21148;SDS011;10732;51.472;6.466;2024-02-28T00:03:11;268.93;;;56.13;;
21148;SDS011;10732;51.472;6.466;2024-02-28T00:05:36;311.07;;;57.77;;
21148;SDS011;10732;51.472;6.466;2024-02-28T00:08:02;175.03;;;48.90;;
21148;SDS011;10732;51.472;6.466;2024-02-28T00:10:28;118.63;;;47.27;;
21148;SDS011;10732;51.472;6.466;2024-02-28T00:12:53;134.40;;;50.37;;
21148;SDS011;10732;51.472;6.466;2024-02-28T00:15:19;138.80;;;50.30;;
21148;SDS011;10732;51.472;6.466;2024-02-28T00:17:45;161.07;;;47.07;;
21148;SDS011;10732;51.472;6.466;2024-02-28T00:20:10;164.47;;;48.93;;
21148;SDS011;10732;51.472;6.466;2024-02-28T00:22:37;161.07;;;46.37;;
21148;SDS011;10732;51.472;6.466;2024-02-28T00:25:03;133.07;;;49.63;;
21148;SDS011;10732;51.472;6.466;2024-02-28T00:27:31;187.60;;;55.77;;
21148;SDS011;10732;51.472;6.466;2024-02-28T00:29:57;135.23;;;46.40;;
21148;SDS011;10732;51.472;6.466;2024-02-28T00:32:23;137.40;;;45.80;;
21148;SDS011;10732;51.472;6.466;2024-02-28T00:34:48;163.67;;;49.27;;
21148;SDS011;10732;51.472;6.466;2024-02-28T00:37:14;95.17;;;41.47;;
21148;SDS011;10732;51.472;6.466;2024-02-28T00:39:40;75.33;;;39.80;;
21148;SDS011;10732;51.472;6.466;2024-02-28T00:42:05;84.17;;;38.60;;
21148;SDS011;10732;51.472;6.466;2024-02-28T00:44:31;83.93;;;40.43;;
21148;SDS011;10732;51.472;6.466;2024-02-28T00:46:57;74.53;;;39.17;;
21148;SDS011;10732;51.472;6.466;2024-02-28T00:49:22;79.07;;;41.60;;
21148;SDS011;10732;51.472;6.466;2024-02-28T00:51:48;78.63;;;39.07;;
21148;SDS011;10732;51.472;6.466;2024-02-28T00:54:13;75.37;;;40.97;;
21148;SDS011;10732;51.472;6.466;2024-02-28T00:56:39;84.40;;;39.87;;
21148;SDS011;10732;51.472;6.466;2024-02-28T00:59:04;160.10;;;44.53;;
21148;SDS011;10732;51.472;6.466;2024-02-28T01:01:31;101.33;;;43.67;;
21148;SDS011;10732;51.472;6.466;2024-02-28T01:03:57;171.10;;;48.07;;
21148;SDS011;10732;51.472;6.466;2024-02-28T01:06:23;130.70;;;45.33;;
21148;SDS011;10732;51.472;6.466;2024-02-28T01:08:48;123.17;;;45.20;;
21148;SDS011;10732;51.472;6.466;2024-02-28T01:11:14;182.10;;;51.53;;
21148;SDS011;10732;51.472;6.466;2024-02-28T01:13:40;135.97;;;48.60;;
21148;SDS011;10732;51.472;6.466;2024-02-28T01:16:06;131.03;;;51.67;;
21148;SDS011;10732;51.472;6.466;2024-02-28T01:18:31;211.20;;;51.50;;
21148;SDS011;10732;51.472;6.466;2024-02-28T01:20:57;213.73;;;51.00;;
21148;SDS011;10732;51.472;6.466;2024-02-28T01:23:23;144.73;;;49.27;;
21148;SDS011;10732;51.472;6.466;2024-02-28T01:25:49;114.70;;;44.87;;
21148;SDS011;10732;51.472;6.466;2024-02-28T01:28:14;242.90;;;48.87;;
21148;SDS011;10732;51.472;6.466;2024-02-28T01:30:40;137.50;;;50.50;;
21148;SDS011;10732;51.472;6.466;2024-02-28T01:33:05;129.50;;;44.53;;
21148;SDS011;10732;51.472;6.466;2024-02-28T01:35:31;179.50;;;47.83;;
21148;SDS011;10732;51.472;6.466;2024-02-28T01:37:56;187.47;;;48.97;;
21148;SDS011;10732;51.472;6.466;2024-02-28T01:40:22;88.57;;;43.03;;
21148;SDS011;10732;51.472;6.466;2024-02-28T01:42:48;155.07;;;46.40;;
21148;SDS011;10732;51.472;6.466;2024-02-28T01:45:13;103.13;;;43.80;;
21148;SDS011;10732;51.472;6.466;2024-02-28T01:47:45;72.47;;;40.17;;
21148;SDS011;10732;51.472;6.466;2024-02-28T01:50:11;79.33;;;41.77;;
21148;SDS011;10732;51.472;6.466;2024-02-28T01:52:37;83.30;;;41.33;;
21148;SDS011;10732;51.472;6.466;2024-02-28T01:55:04;126.43;;;45.23;;
21148;SDS011;10732;51.472;6.466;2024-02-28T01:57:31;72.23;;;38.60;;
21148;SDS011;10732;51.472;6.466;2024-02-28T01:59:58;99.63;;;44.97;;
21148;SDS011;10732;51.472;6.466;2024-02-28T02:02:23;89.33;;;42.47;;
21148;SDS011;10732;51.472;6.466;2024-02-28T02:04:49;87.83;;;43.00;;
21148;SDS011;10732;51.472;6.466;2024-02-28T02:07:18;121.47;;;46.00;;
21148;SDS011;10732;51.472;6.466;2024-02-28T02:09:44;95.43;;;44.30;;
21148;SDS011;10732;51.472;6.466;2024-02-28T02:12:11;85.50;;;42.37;;
21148;SDS011;10732;51.472;6.466;2024-02-28T02:14:37;78.40;;;41.70;;
21148;SDS011;10732;51.472;6.466;2024-02-28T02:17:02;87.50;;;42.30;;
21148;SDS011;10732;51.472;6.466;2024-02-28T02:19:28;76.90;;;41.23;;
21148;SDS011;10732;51.472;6.466;2024-02-28T02:21:56;86.10;;;43.40;;
21148;SDS011;10732;51.472;6.466;2024-02-28T02:24:23;116.47;;;47.30;;
21148;SDS011;10732;51.472;6.466;2024-02-28T02:26:49;171.93;;;48.73;;
21148;SDS011;10732;51.472;6.466;2024-02-28T02:29:19;138.17;;;51.33;;
21148;SDS011;10732;51.472;6.466;2024-02-28T02:31:45;127.53;;;50.63;;
21148;SDS011;10732;51.472;6.466;2024-02-28T02:34:10;135.30;;;51.80;;
21148;SDS011;10732;51.472;6.466;2024-02-28T02:36:36;94.53;;;45.90;;
21148;SDS011;10732;51.472;6.466;2024-02-28T02:39:02;118.10;;;46.27;;
21148;SDS011;10732;51.472;6.466;2024-02-28T02:41:27;124.17;;;44.10;;
21148;SDS011;10732;51.472;6.466;2024-02-28T02:43:53;101.80;;;43.20;;
21148;SDS011;10732;51.472;6.466;2024-02-28T02:46:19;102.43;;;45.53;;
21148;SDS011;10732;51.472;6.466;2024-02-28T02:48:45;94.27;;;43.40;;
21148;SDS011;10732;51.472;6.466;2024-02-28T02:51:10;233.03;;;54.13;;
21148;SDS011;10732;51.472;6.466;2024-02-28T02:53:36;131.13;;;48.70;;
21148;SDS011;10732;51.472;6.466;2024-02-28T02:56:05;141.10;;;51.80;;
21148;SDS011;10732;51.472;6.466;2024-02-28T02:58:34;133.17;;;51.70;;
21148;SDS011;10732;51.472;6.466;2024-02-28T03:01:00;97.37;;;48.43;;
21148;SDS011;10732;51.472;6.466;2024-02-28T03:03:25;139.67;;;53.03;;
21148;SDS011;10732;51.472;6.466;2024-02-28T03:05:51;136.23;;;51.10;;
21148;SDS011;10732;51.472;6.466;2024-02-28T03:08:16;145.00;;;50.70;;
21148;SDS011;10732;51.472;6.466;2024-02-28T03:10:42;198.47;;;54.13;;
21148;SDS011;10732;51.472;6.466;2024-02-28T03:13:07;187.77;;;60.33;;
21148;SDS011;10732;51.472;6.466;2024-02-28T03:15:33;167.33;;;59.37;;
21148;SDS011;10732;51.472;6.466;2024-02-28T03:17:59;361.97;;;77.07;;
21148;SDS011;10732;51.472;6.466;2024-02-28T03:20:24;306.87;;;73.80;;
21148;SDS011;10732;51.472;6.466;2024-02-28T03:22:51;181.27;;;62.13;;
21148;SDS011;10732;51.472;6.466;2024-02-28T03:25:16;424.70;;;75.47;;
21148;SDS011;10732;51.472;6.466;2024-02-28T03:27:42;168.80;;;61.10;;
21148;SDS011;10732;51.472;6.466;2024-02-28T03:30:07;327.57;;;72.30;;
21148;SDS011;10732;51.472;6.466;2024-02-28T03:32:33;257.10;;;70.67;;
21148;SDS011;10732;51.472;6.466;2024-02-28T03:34:59;302.67;;;77.57;;
21148;SDS011;10732;51.472;6.466;2024-02-28T03:37:25;209.77;;;66.67;;
21148;SDS011;10732;51.472;6.466;2024-02-28T03:39:51;230.60;;;65.03;;
21148;SDS011;10732;51.472;6.466;2024-02-28T03:42:16;260.97;;;68.80;;
21148;SDS011;10732;51.472;6.466;2024-02-28T03:44:42;372.93;;;78.93;;
21148;SDS011;10732;51.472;6.466;2024-02-28T03:47:08;501.50;;;91.83;;
21148;SDS011;10732;51.472;6.466;2024-02-28T03:49:34;210.97;;;62.57;;
21148;SDS011;10732;51.472;6.466;2024-02-28T03:51:59;441.60;;;83.70;;
21148;SDS011;10732;51.472;6.466;2024-02-28T03:54:26;297.57;;;70.73;;
21148;SDS011;10732;51.472;6.466;2024-02-28T03:56:52;410.03;;;82.10;;
21148;SDS011;10732;51.472;6.466;2024-02-28T03:59:17;373.77;;;77.53;;
21148;SDS011;10732;51.472;6.466;2024-02-28T04:01:43;440.63;;;84.77;;
21148;SDS011;10732;51.472;6.466;2024-02-28T04:04:09;357.07;;;74.07;;
21148;SDS011;10732;51.472;6.466;2024-02-28T04:06:35;351.50;;;72.77;;
21148;SDS011;10732;51.472;6.466;2024-02-28T04:09:00;436.87;;;80.50;;
21148;SDS011;10732;51.472;6.466;2024-02-28T04:11:27;297.60;;;70.57;;
21148;SDS011;10732;51.472;6.466;2024-02-28T04:13:53;568.13;;;110.80;;
21148;SDS011;10732;51.472;6.466;2024-02-28T04:16:19;306.80;;;76.33;;
21148;SDS011;10732;51.472;6.466;2024-02-28T04:18:44;354.93;;;79.63;;
21148;SDS011;10732;51.472;6.466;2024-02-28T04:21:10;347.63;;;82.90;;
21148;SDS011;10732;51.472;6.466;2024-02-28T04:23:35;684.30;;;99.33;;
21148;SDS011;10732;51.472;6.466;2024-02-28T04:26:03;283.60;;;79.37;;
21148;SDS011;10732;51.472;6.466;2024-02-28T04:28:28;338.37;;;83.27;;
21148;SDS011;10732;51.472;6.466;2024-02-28T04:30:54;386.17;;;89.53;;
21148;SDS011;10732;51.472;6.466;2024-02-28T04:33:20;286.67;;;77.47;;
21148;SDS011;10732;51.472;6.466;2024-02-28T04:35:46;340.77;;;83.93;;
21148;SDS011;10732;51.472;6.466;2024-02-28T04:38:12;246.67;;;77.47;;
21148;SDS011;10732;51.472;6.466;2024-02-28T04:40:37;236.70;;;77.20;;
21148;SDS011;10732;51.472;6.466;2024-02-28T04:43:03;233.17;;;80.17;;
21148;SDS011;10732;51.472;6.466;2024-02-28T04:45:28;342.43;;;89.07;;
21148;SDS011;10732;51.472;6.466;2024-02-28T04:47:54;182.10;;;74.17;;
21148;SDS011;10732;51.472;6.466;2024-02-28T04:50:21;304.30;;;81.80;;
21148;SDS011;10732;51.472;6.466;2024-02-28T04:52:47;357.53;;;86.20;;
21148;SDS011;10732;51.472;6.466;2024-02-28T04:55:13;415.73;;;90.17;;
21148;SDS011;10732;51.472;6.466;2024-02-28T04:57:38;398.30;;;90.27;;
21148;SDS011;10732;51.472;6.466;2024-02-28T05:00:05;245.60;;;85.47;;
21148;SDS011;10732;51.472;6.466;2024-02-28T05:02:32;199.10;;;79.00;;
21148;SDS011;10732;51.472;6.466;2024-02-28T05:04:58;312.13;;;83.47;;
21148;SDS011;10732;51.472;6.466;2024-02-28T05:07:24;249.07;;;78.97;;
21148;SDS011;10732;51.472;6.466;2024-02-28T05:09:49;367.63;;;84.30;;
21148;SDS011;10732;51.472;6.466;2024-02-28T05:12:15;471.67;;;88.93;;
21148;SDS011;10732;51.472;6.466;2024-02-28T05:14:41;401.57;;;96.57;;
21148;SDS011;10732;51.472;6.466;2024-02-28T05:17:06;317.07;;;83.10;;
21148;SDS011;10732;51.472;6.466;2024-02-28T05:19:32;358.90;;;91.67;;
21148;SDS011;10732;51.472;6.466;2024-02-28T05:21:57;219.87;;;78.80;;
21148;SDS011;10732;51.472;6.466;2024-02-28T05:24:23;317.90;;;83.20;;
21148;SDS011;10732;51.472;6.466;2024-02-28T05:26:49;203.23;;;79.50;;
21148;SDS011;10732;51.472;6.466;2024-02-28T05:29:14;276.53;;;79.17;;
21148;SDS011;10732;51.472;6.466;2024-02-28T05:31:40;338.23;;;84.00;;
21148;SDS011;10732;51.472;6.466;2024-02-28T05:34:06;333.57;;;89.30;;
21148;SDS011;10732;51.472;6.466;2024-02-28T05:36:31;334.40;;;84.23;;
21148;SDS011;10732;51.472;6.466;2024-02-28T05:38:58;306.43;;;83.03;;
21148;SDS011;10732;51.472;6.466;2024-02-28T05:41:26;325.67;;;82.43;;
21148;SDS011;10732;51.472;6.466;2024-02-28T05:43:51;361.50;;;88.03;;
21148;SDS011;10732;51.472;6.466;2024-02-28T05:46:17;370.63;;;87.47;;
21148;SDS011;10732;51.472;6.466;2024-02-28T05:48:44;250.50;;;80.93;;
21148;SDS011;10732;51.472;6.466;2024-02-28T05:51:13;354.80;;;88.73;;
21148;SDS011;10732;51.472;6.466;2024-02-28T05:53:39;337.53;;;85.87;;
21148;SDS011;10732;51.472;6.466;2024-02-28T05:56:05;338.93;;;88.07;;
21148;SDS011;10732;51.472;6.466;2024-02-28T05:58:38;431.70;;;105.73;;
21148;SDS011;10732;51.472;6.466;2024-02-28T06:01:08;365.17;;;90.17;;
21148;SDS011;10732;51.472;6.466;2024-02-28T06:03:35;326.13;;;90.70;;
21148;SDS011;10732;51.472;6.466;2024-02-28T06:06:01;412.97;;;90.23;;
21148;SDS011;10732;51.472;6.466;2024-02-28T06:08:30;289.37;;;83.17;;
21148;SDS011;10732;51.472;6.466;2024-02-28T06:10:57;264.10;;;73.30;;
21148;SDS011;10732;51.472;6.466;2024-02-28T06:13:22;256.57;;;77.87;;
21148;SDS011;10732;51.472;6.466;2024-02-28T06:15:48;380.00;;;89.63;;
21148;SDS011;10732;51.472;6.466;2024-02-28T06:18:14;297.43;;;83.77;;
21148;SDS011;10732;51.472;6.466;2024-02-28T06:20:39;410.87;;;97.33;;
21148;SDS011;10732;51.472;6.466;2024-02-28T06:23:05;380.83;;;83.43;;
21148;SDS011;10732;51.472;6.466;2024-02-28T06:25:31;274.00;;;75.60;;
21148;SDS011;10732;51.472;6.466;2024-02-28T06:27:59;244.97;;;79.83;;
21148;SDS011;10732;51.472;6.466;2024-02-28T06:30:25;274.43;;;85.63;;
21148;SDS011;10732;51.472;6.466;2024-02-28T06:32:50;238.63;;;79.53;;
21148;SDS011;10732;51.472;6.466;2024-02-28T06:35:17;256.63;;;82.83;;
21148;SDS011;10732;51.472;6.466;2024-02-28T06:37:42;260.53;;;82.23;;
21148;SDS011;10732;51.472;6.466;2024-02-28T06:40:13;359.43;;;88.30;;
21148;SDS011;10732;51.472;6.466;2024-02-28T06:42:39;296.00;;;75.50;;
21148;SDS011;10732;51.472;6.466;2024-02-28T06:45:05;316.07;;;70.07;;
21148;SDS011;10732;51.472;6.466;2024-02-28T06:47:32;238.20;;;60.50;;
21148;SDS011;10732;51.472;6.466;2024-02-28T06:49:58;286.47;;;60.20;;
21148;SDS011;10732;51.472;6.466;2024-02-28T06:52:23;242.57;;;65.83;;
21148;SDS011;10732;51.472;6.466;2024-02-28T06:54:49;246.73;;;64.13;;
21148;SDS011;10732;51.472;6.466;2024-02-28T06:57:14;238.87;;;65.40;;
21148;SDS011;10732;51.472;6.466;2024-02-28T06:59:40;364.47;;;70.27;;
21148;SDS011;10732;51.472;6.466;2024-02-28T07:02:06;257.80;;;69.40;;
21148;SDS011;10732;51.472;6.466;2024-02-28T07:04:31;334.13;;;73.10;;
21148;SDS011;10732;51.472;6.466;2024-02-28T07:06:57;423.43;;;77.67;;
21148;SDS011;10732;51.472;6.466;2024-02-28T07:09:22;311.20;;;64.37;;
21148;SDS011;10732;51.472;6.466;2024-02-28T07:11:50;290.20;;;67.17;;
21148;SDS011;10732;51.472;6.466;2024-02-28T07:14:16;295.83;;;67.27;;
21148;SDS011;10732;51.472;6.466;2024-02-28T07:16:42;439.87;;;83.50;;
21148;SDS011;10732;51.472;6.466;2024-02-28T07:19:08;244.67;;;64.73;;
21148;SDS011;10732;51.472;6.466;2024-02-28T07:21:33;264.37;;;66.53;;
21148;SDS011;10732;51.472;6.466;2024-02-28T07:24:01;381.17;;;77.57;;
21148;SDS011;10732;51.472;6.466;2024-02-28T07:26:29;287.40;;;64.17;;
21148;SDS011;10732;51.472;6.466;2024-02-28T07:28:55;253.33;;;63.90;;
21148;SDS011;10732;51.472;6.466;2024-02-28T07:31:21;231.40;;;60.10;;
21148;SDS011;10732;51.472;6.466;2024-02-28T07:33:47;411.40;;;73.17;;
21148;SDS011;10732;51.472;6.466;2024-02-28T07:36:13;312.00;;;64.40;;
21148;SDS011;10732;51.472;6.466;2024-02-28T07:38:41;251.43;;;60.77;;
21148;SDS011;10732;51.472;6.466;2024-02-28T07:41:07;293.30;;;63.93;;
21148;SDS011;10732;51.472;6.466;2024-02-28T07:43:32;330.87;;;63.87;;
21148;SDS011;10732;51.472;6.466;2024-02-28T07:46:02;191.85;;;60.33;;
21148;SDS011;10732;51.472;6.466;2024-02-28T07:48:35;216.25;;;58.67;;
21148;SDS011;10732;51.472;6.466;2024-02-28T07:51:04;218.13;;;59.97;;
21148;SDS011;10732;51.472;6.466;2024-02-28T07:53:30;184.93;;;54.87;;
21148;SDS011;10732;51.472;6.466;2024-02-28T07:55:55;156.20;;;52.00;;
21148;SDS011;10732;51.472;6.466;2024-02-28T07:58:21;165.17;;;53.47;;
21148;SDS011;10732;51.472;6.466;2024-02-28T08:00:46;179.90;;;55.47;;
21148;SDS011;10732;51.472;6.466;2024-02-28T08:03:12;157.50;;;53.20;;
21148;SDS011;10732;51.472;6.466;2024-02-28T08:05:38;160.47;;;52.17;;
21148;SDS011;10732;51.472;6.466;2024-02-28T08:08:08;145.57;;;51.20;;
21148;SDS011;10732;51.472;6.466;2024-02-28T08:10:33;163.10;;;54.07;;
21148;SDS011;10732;51.472;6.466;2024-02-28T08:13:00;148.20;;;54.55;;
21148;SDS011;10732;51.472;6.466;2024-02-28T08:15:26;154.10;;;54.57;;
21148;SDS011;10732;51.472;6.466;2024-02-28T08:17:51;154.52;;;54.53;;
21148;SDS011;10732;51.472;6.466;2024-02-28T08:20:17;167.70;;;54.88;;
21148;SDS011;10732;51.472;6.466;2024-02-28T08:22:43;163.50;;;52.42;;
21148;SDS011;10732;51.472;6.466;2024-02-28T08:25:08;187.70;;;52.95;;
21148;SDS011;10732;51.472;6.466;2024-02-28T08:27:36;162.43;;;53.42;;
21148;SDS011;10732;51.472;6.466;2024-02-28T08:30:02;156.70;;;52.20;;
21148;SDS011;10732;51.472;6.466;2024-02-28T08:32:28;176.80;;;53.00;;
21148;SDS011;10732;51.472;6.466;2024-02-28T08:34:54;184.18;;;53.42;;
21148;SDS011;10732;51.472;6.466;2024-02-28T08:37:20;167.57;;;54.00;;
21148;SDS011;10732;51.472;6.466;2024-02-28T08:39:45;176.55;;;54.20;;
21148;SDS011;10732;51.472;6.466;2024-02-28T08:42:11;161.18;;;52.33;;
21148;SDS011;10732;51.472;6.466;2024-02-28T08:44:37;152.88;;;51.92;;
21148;SDS011;10732;51.472;6.466;2024-02-28T08:47:03;158.10;;;50.78;;
21148;SDS011;10732;51.472;6.466;2024-02-28T08:49:28;156.73;;;49.22;;
21148;SDS011;10732;51.472;6.466;2024-02-28T08:51:55;165.43;;;51.20;;
21148;SDS011;10732;51.472;6.466;2024-02-28T08:54:22;155.73;;;50.55;;
21148;SDS011;10732;51.472;6.466;2024-02-28T08:56:47;170.02;;;51.72;;
21148;SDS011;10732;51.472;6.466;2024-02-28T08:59:13;148.85;;;47.25;;
21148;SDS011;10732;51.472;6.466;2024-02-28T09:01:39;137.73;;;46.40;;
21148;SDS011;10732;51.472;6.466;2024-02-28T09:04:06;130.75;;;46.00;;
21148;SDS011;10732;51.472;6.466;2024-02-28T09:06:32;131.52;;;45.75;;
21148;SDS011;10732;51.472;6.466;2024-02-28T09:08:57;130.90;;;46.10;;
21148;SDS011;10732;51.472;6.466;2024-02-28T09:11:23;121.93;;;45.75;;
21148;SDS011;10732;51.472;6.466;2024-02-28T09:13:50;115.63;;;43.72;;
21148;SDS011;10732;51.472;6.466;2024-02-28T09:16:16;110.60;;;42.30;;
21148;SDS011;10732;51.472;6.466;2024-02-28T09:18:41;105.65;;;43.17;;
21148;SDS011;10732;51.472;6.466;2024-02-28T09:21:07;99.13;;;41.80;;
21148;SDS011;10732;51.472;6.466;2024-02-28T09:23:33;101.43;;;42.10;;
21148;SDS011;10732;51.472;6.466;2024-02-28T09:26:02;107.32;;;42.47;;
21148;SDS011;10732;51.472;6.466;2024-02-28T09:28:29;96.25;;;39.90;;
21148;SDS011;10732;51.472;6.466;2024-02-28T09:30:54;99.88;;;40.30;;
21148;SDS011;10732;51.472;6.466;2024-02-28T09:33:20;96.78;;;41.72;;
21148;SDS011;10732;51.472;6.466;2024-02-28T09:35:46;97.20;;;40.95;;
21148;SDS011;10732;51.472;6.466;2024-02-28T09:38:11;99.28;;;42.33;;
21148;SDS011;10732;51.472;6.466;2024-02-28T09:40:37;98.57;;;42.78;;
21148;SDS011;10732;51.472;6.466;2024-02-28T09:43:03;83.93;;;38.92;;
21148;SDS011;10732;51.472;6.466;2024-02-28T09:45:30;85.47;;;40.00;;
21148;SDS011;10732;51.472;6.466;2024-02-28T09:47:57;85.03;;;39.40;;
21148;SDS011;10732;51.472;6.466;2024-02-28T09:50:28;84.80;;;39.58;;
21148;SDS011;10732;51.472;6.466;2024-02-28T09:52:55;85.38;;;38.90;;
21148;SDS011;10732;51.472;6.466;2024-02-28T09:55:21;87.00;;;39.67;;
21148;SDS011;10732;51.472;6.466;2024-02-28T09:57:47;89.97;;;39.92;;
21148;SDS011;10732;51.472;6.466;2024-02-28T10:00:15;89.53;;;42.55;;
21148;SDS011;10732;51.472;6.466;2024-02-28T10:02:44;86.35;;;40.05;;
21148;SDS011;10732;51.472;6.466;2024-02-28T10:05:15;84.68;;;38.65;;
21148;SDS011;10732;51.472;6.466;2024-02-28T10:07:42;82.85;;;35.95;;
21148;SDS011;10732;51.472;6.466;2024-02-28T10:10:07;78.35;;;37.00;;
21148;SDS011;10732;51.472;6.466;2024-02-28T10:12:33;69.95;;;35.45;;
21148;SDS011;10732;51.472;6.466;2024-02-28T10:15:02;67.93;;;32.92;;
21148;SDS011;10732;51.472;6.466;2024-02-28T10:17:28;71.68;;;32.95;;
21148;SDS011;10732;51.472;6.466;2024-02-28T10:19:53;68.43;;;34.03;;
21148;SDS011;10732;51.472;6.466;2024-02-28T10:22:19;67.88;;;33.88;;
21148;SDS011;10732;51.472;6.466;2024-02-28T10:24:45;68.35;;;34.70;;
21148;SDS011;10732;51.472;6.466;2024-02-28T10:27:10;68.80;;;33.30;;
21148;SDS011;10732;51.472;6.466;2024-02-28T10:29:41;70.90;;;32.13;;
21148;SDS011;10732;51.472;6.466;2024-02-28T10:32:09;67.72;;;31.80;;
21148;SDS011;10732;51.472;6.466;2024-02-28T10:34:35;64.43;;;32.65;;
21148;SDS011;10732;51.472;6.466;2024-02-28T10:37:03;61.28;;;31.17;;
21148;SDS011;10732;51.472;6.466;2024-02-28T10:39:30;65.40;;;32.80;;
21148;SDS011;10732;51.472;6.466;2024-02-28T10:41:57;65.43;;;30.63;;
21148;SDS011;10732;51.472;6.466;2024-02-28T10:44:25;62.67;;;30.92;;
21148;SDS011;10732;51.472;6.466;2024-02-28T10:46:52;64.20;;;32.38;;
21148;SDS011;10732;51.472;6.466;2024-02-28T10:49:19;63.22;;;32.47;;
21148;SDS011;10732;51.472;6.466;2024-02-28T10:51:48;63.28;;;31.20;;
21148;SDS011;10732;51.472;6.466;2024-02-28T10:54:16;63.10;;;31.52;;
21148;SDS011;10732;51.472;6.466;2024-02-28T10:56:45;62.83;;;31.20;;
21148;SDS011;10732;51.472;6.466;2024-02-28T10:59:11;64.47;;;32.03;;
21148;SDS011;10732;51.472;6.466;2024-02-28T11:01:41;57.83;;;30.88;;
21148;SDS011;10732;51.472;6.466;2024-02-28T11:04:08;56.75;;;30.83;;
21148;SDS011;10732;51.472;6.466;2024-02-28T11:06:35;58.17;;;29.27;;
21148;SDS011;10732;51.472;6.466;2024-02-28T11:09:21;51.38;;;29.25;;
21148;SDS011;10732;51.472;6.466;2024-02-28T11:11:57;57.78;;;28.70;;
21148;SDS011;10732;51.472;6.466;2024-02-28T11:14:23;50.03;;;27.50;;
21148;SDS011;10732;51.472;6.466;2024-02-28T11:19:30;45.35;;;26.88;;
21148;SDS011;10732;51.472;6.466;2024-02-28T11:21:58;49.75;;;27.63;;
21148;SDS011;10732;51.472;6.466;2024-02-28T11:24:27;52.70;;;28.33;;
21148;SDS011;10732;51.472;6.466;2024-02-28T11:26:56;56.80;;;28.95;;
21148;SDS011;10732;51.472;6.466;2024-02-28T11:29:25;60.17;;;30.33;;
21148;SDS011;10732;51.472;6.466;2024-02-28T11:31:53;56.35;;;29.85;;
21148;SDS011;10732;51.472;6.466;2024-02-28T11:34:19;52.17;;;28.75;;
21148;SDS011;10732;51.472;6.466;2024-02-28T11:36:48;56.65;;;29.30;;
21148;SDS011;10732;51.472;6.466;2024-02-28T11:39:15;54.83;;;29.67;;
21148;SDS011;10732;51.472;6.466;2024-02-28T11:41:42;61.88;;;32.08;;
21148;SDS011;10732;51.472;6.466;2024-02-28T11:44:11;58.90;;;30.70;;
21148;SDS011;10732;51.472;6.466;2024-02-28T11:46:46;61.75;;;31.95;;
21148;SDS011;10732;51.472;6.466;2024-02-28T11:49:14;59.22;;;31.45;;
21148;SDS011;10732;51.472;6.466;2024-02-28T11:51:41;60.28;;;31.90;;
21148;SDS011;10732;51.472;6.466;2024-02-28T11:54:07;60.33;;;31.63;;
21148;SDS011;10732;51.472;6.466;2024-02-28T11:56:35;60.10;;;30.20;;
21148;SDS011;10732;51.472;6.466;2024-02-28T11:59:03;55.33;;;29.15;;
21148;SDS011;10732;51.472;6.466;2024-02-28T12:01:36;48.42;;;28.45;;
21148;SDS011;10732;51.472;6.466;2024-02-28T12:04:03;45.55;;;24.80;;
21148;SDS011;10732;51.472;6.466;2024-02-28T12:06:30;45.88;;;25.90;;
21148;SDS011;10732;51.472;6.466;2024-02-28T12:08:56;49.15;;;27.27;;
21148;SDS011;10732;51.472;6.466;2024-02-28T12:11:24;48.65;;;27.80;;
21148;SDS011;10732;51.472;6.466;2024-02-28T12:13:52;56.72;;;28.02;;
21148;SDS011;10732;51.472;6.466;2024-02-28T12:16:21;48.25;;;26.23;;
21148;SDS011;10732;51.472;6.466;2024-02-28T12:18:48;47.78;;;26.77;;
21148;SDS011;10732;51.472;6.466;2024-02-28T12:21:14;44.33;;;25.73;;
21148;SDS011;10732;51.472;6.466;2024-02-28T12:23:40;51.33;;;26.70;;
21148;SDS011;10732;51.472;6.466;2024-02-28T12:26:05;51.25;;;26.63;;
21148;SDS011;10732;51.472;6.466;2024-02-28T12:28:31;48.78;;;26.90;;
21148;SDS011;10732;51.472;6.466;2024-02-28T12:30:57;47.30;;;25.77;;
21148;SDS011;10732;51.472;6.466;2024-02-28T12:33:22;45.13;;;25.50;;
21148;SDS011;10732;51.472;6.466;2024-02-28T12:35:48;47.45;;;27.13;;
21148;SDS011;10732;51.472;6.466;2024-02-28T12:38:13;44.40;;;24.58;;
21148;SDS011;10732;51.472;6.466;2024-02-28T12:40:40;42.63;;;23.55;;
21148;SDS011;10732;51.472;6.466;2024-02-28T12:43:07;42.70;;;24.65;;
21148;SDS011;10732;51.472;6.466;2024-02-28T12:45:33;41.08;;;23.25;;
21148;SDS011;10732;51.472;6.466;2024-02-28T12:47:59;40.47;;;23.58;;
21148;SDS011;10732;51.472;6.466;2024-02-28T12:50:26;41.50;;;23.08;;
21148;SDS011;10732;51.472;6.466;2024-02-28T12:52:52;44.33;;;23.13;;
21148;SDS011;10732;51.472;6.466;2024-02-28T12:55:19;39.15;;;22.63;;
21148;SDS011;10732;51.472;6.466;2024-02-28T12:57:46;41.30;;;24.77;;
21148;SDS011;10732;51.472;6.466;2024-02-28T13:00:12;40.00;;;22.75;;
21148;SDS011;10732;51.472;6.466;2024-02-28T13:02:38;38.10;;;22.30;;
21148;SDS011;10732;51.472;6.466;2024-02-28T13:05:04;42.95;;;22.75;;
21148;SDS011;10732;51.472;6.466;2024-02-28T13:07:30;39.30;;;22.27;;
21148;SDS011;10732;51.472;6.466;2024-02-28T13:09:56;38.83;;;21.52;;
21148;SDS011;10732;51.472;6.466;2024-02-28T13:12:21;42.65;;;23.60;;
21148;SDS011;10732;51.472;6.466;2024-02-28T13:14:47;44.08;;;22.98;;
21148;SDS011;10732;51.472;6.466;2024-02-28T13:17:13;37.65;;;22.52;;
21148;SDS011;10732;51.472;6.466;2024-02-28T13:19:40;40.58;;;20.75;;
21148;SDS011;10732;51.472;6.466;2024-02-28T13:22:05;40.90;;;21.02;;
21148;SDS011;10732;51.472;6.466;2024-02-28T13:24:31;36.88;;;21.05;;
21148;SDS011;10732;51.472;6.466;2024-02-28T13:26:57;39.03;;;21.63;;
21148;SDS011;10732;51.472;6.466;2024-02-28T13:29:22;40.80;;;21.60;;
21148;SDS011;10732;51.472;6.466;2024-02-28T13:31:48;38.55;;;21.35;;
21148;SDS011;10732;51.472;6.466;2024-02-28T13:34:14;34.55;;;20.05;;
21148;SDS011;10732;51.472;6.466;2024-02-28T13:36:39;33.25;;;19.80;;
21148;SDS011;10732;51.472;6.466;2024-02-28T13:39:08;35.95;;;19.70;;
21148;SDS011;10732;51.472;6.466;2024-02-28T13:41:34;34.78;;;20.60;;
21148;SDS011;10732;51.472;6.466;2024-02-28T13:44:00;31.08;;;18.67;;
21148;SDS011;10732;51.472;6.466;2024-02-28T13:46:25;32.80;;;19.20;;
21148;SDS011;10732;51.472;6.466;2024-02-28T13:48:51;33.80;;;19.55;;
21148;SDS011;10732;51.472;6.466;2024-02-28T13:51:16;37.88;;;21.52;;
21148;SDS011;10732;51.472;6.466;2024-02-28T13:53:42;34.72;;;19.83;;
21148;SDS011;10732;51.472;6.466;2024-02-28T13:56:08;36.17;;;19.85;;
21148;SDS011;10732;51.472;6.466;2024-02-28T13:58:33;32.20;;;19.75;;
21148;SDS011;10732;51.472;6.466;2024-02-28T14:00:59;36.08;;;19.38;;
21148;SDS011;10732;51.472;6.466;2024-02-28T14:03:24;33.38;;;19.25;;
21148;SDS011;10732;51.472;6.466;2024-02-28T14:05:50;36.83;;;20.02;;
21148;SDS011;10732;51.472;6.466;2024-02-28T14:08:17;34.65;;;19.98;;
21148;SDS011;10732;51.472;6.466;2024-02-28T14:10:42;34.13;;;20.13;;